Time;durP1;ratioP1;P1;durP2;ratioP2;P2;SDS_P1;SDS_P2;PMS_P1;PMS_P2;Temp;Humidity;BMP_temperature;BMP_pressure;BME280_temperature;BME280_humidity;BME280_pressure;Samples;Min_cycle;Max_cycle;Signal;HPM_P1;HPM_P2
2022/06/14 00:01:22;;;;;;;1.05;0.43;;;10.80;99.90;;;;;;5052908;28;20040;-77
2022/06/14 00:03:48;;;;;;;1.05;0.45;;;10.80;99.90;;;;;;5070296;28;20423;-77
2022/06/14 00:06:23;;;;;;;1.10;0.50;;;10.90;99.90;;;;;;5070135;28;20052;-78
2022/06/14 00:08:50;;;;;;;2.67;0.70;;;10.90;99.90;;;;;;5053432;28;20145;-78
2022/06/14 00:11:34;;;;;;;2.03;0.95;;;11.00;99.90;;;;;;5053982;28;20033;-78
2022/06/14 00:14:03;;;;;;;1.98;0.63;;;11.00;99.90;;;;;;5040009;28;20536;-78
2022/06/14 00:16:30;;;;;;;2.60;0.80;;;11.10;99.90;;;;;;5068933;28;20037;-78
2022/06/14 00:18:56;;;;;;;1.67;0.68;;;11.10;99.90;;;;;;5071740;28;20480;-78
2022/06/14 00:21:22;;;;;;;2.28;0.80;;;11.10;99.90;;;;;;5045860;28;20059;-77
2022/06/14 00:23:48;;;;;;;3.67;1.20;;;11.10;99.90;;;;;;5069031;28;20036;-78
2022/06/14 00:26:14;;;;;;;2.30;1.20;;;11.10;99.90;;;;;;5071056;28;20139;-78
2022/06/14 00:28:42;;;;;;;4.70;0.90;;;11.10;99.90;;;;;;5067070;28;20044;-78
2022/06/14 00:31:17;;;;;;;4.00;1.13;;;11.00;99.90;;;;;;5082863;28;20032;-78
2022/06/14 00:33:44;;;;;;;4.70;1.17;;;11.00;99.90;;;;;;5080922;28;20033;-78
2022/06/14 00:36:20;;;;;;;3.45;1.08;;;11.00;99.90;;;;;;5074710;28;20040;-78
2022/06/14 00:38:46;;;;;;;;;;;11.00;99.90;;;;;;5076694;28;20060;-78
2022/06/14 00:41:28;;;;;;;3.42;1.20;;;11.00;99.90;;;;;;5068416;28;20049;-77
2022/06/14 00:43:54;;;;;;;2.42;1.13;;;11.00;99.90;;;;;;5086857;28;20044;-77
2022/06/14 00:46:25;;;;;;;2.70;0.90;;;11.00;99.90;;;;;;5071463;28;20053;-78
2022/06/14 00:49:01;;;;;;;3.42;1.00;;;11.00;99.90;;;;;;5058207;28;20467;-78
2022/06/14 00:51:30;;;;;;;2.80;0.98;;;11.10;99.90;;;;;;5053073;28;20059;-78
2022/06/14 00:54:01;;;;;;;1.00;0.60;;;11.00;99.90;;;;;;5068673;28;20095;-78
2022/06/14 00:56:52;;;;;;;2.30;0.80;;;11.10;99.90;;;;;;5070477;28;20040;-78
2022/06/14 00:59:41;;;;;;;2.47;0.80;;;11.10;99.90;;;;;;5062221;28;20032;-78
2022/06/14 01:02:18;;;;;;;2.88;1.00;;;11.10;99.90;;;;;;5052375;28;20048;-79
2022/06/14 01:04:46;;;;;;;2.45;0.88;;;11.10;99.90;;;;;;5070769;28;20687;-77
2022/06/14 01:07:24;;;;;;;1.35;0.68;;;11.10;99.90;;;;;;5075336;28;20080;-78
2022/06/14 01:10:06;;;;;;;2.00;1.10;;;11.10;99.90;;;;;;5068888;28;20040;-78
2022/06/14 01:12:36;;;;;;;1.50;0.80;;;11.00;99.90;;;;;;5081703;28;20045;-78
2022/06/14 01:15:29;;;;;;;2.42;0.70;;;11.00;99.90;;;;;;5066951;28;20063;-77
2022/06/14 01:18:11;;;;;;;2.00;0.80;;;10.90;99.90;;;;;;5064720;28;20052;-78
2022/06/14 01:20:37;;;;;;;1.63;0.57;;;10.90;99.90;;;;;;5068485;28;20036;-78
2022/06/14 01:23:06;;;;;;;1.30;0.70;;;10.80;99.90;;;;;;5082052;28;20048;-78
2022/06/14 01:25:37;;;;;;;1.50;0.80;;;10.80;99.90;;;;;;5068519;28;20037;-78
2022/06/14 01:28:03;;;;;;;1.63;0.73;;;10.70;99.90;;;;;;5076160;28;20037;-77
2022/06/14 01:30:36;;;;;;;1.83;0.90;;;10.70;99.90;;;;;;5082442;28;20035;-78
2022/06/14 01:33:24;;;;;;;1.85;0.70;;;10.70;99.90;;;;;;5041875;28;20117;-78
2022/06/14 01:35:55;;;;;;;1.77;0.60;;;10.60;99.90;;;;;;5084902;28;20369;-77
2022/06/14 01:38:21;;;;;;;1.75;0.50;;;10.60;99.90;;;;;;5068705;28;20045;-78
2022/06/14 01:41:09;;;;;;;1.08;0.70;;;10.60;99.90;;;;;;5067687;28;20111;-78
2022/06/14 01:43:35;;;;;;;2.60;0.70;;;10.50;99.90;;;;;;5059614;28;20413;-78
2022/06/14 01:46:23;;;;;;;1.85;0.70;;;10.50;99.90;;;;;;5053225;28;20040;-78
2022/06/14 01:52:03;;;;;;;1.85;0.77;;;10.50;99.90;;;;;;5056061;28;20052;-78
2022/06/14 01:54:51;;;;;;;0.90;0.60;;;10.40;99.90;;;;;;5083965;28;20044;-78
2022/06/14 01:57:31;;;;;;;1.33;0.60;;;10.30;99.90;;;;;;5077921;28;20068;-77
2022/06/14 02:00:12;;;;;;;1.20;0.60;;;10.40;99.90;;;;;;5072584;28;20032;-78
2022/06/14 02:04:36;;;;;;;1.52;0.73;;;10.30;99.90;;;;;;5055012;28;20041;-69
2022/06/14 02:05:44;;;;;;;1.65;0.80;;;10.30;99.90;;;;;;5071422;28;20070;-69
2022/06/14 02:08:17;;;;;;;2.70;0.82;;;10.20;99.90;;;;;;5084228;28;20109;-69
2022/06/14 02:10:57;;;;;;;1.63;0.63;;;10.20;99.90;;;;;;5072234;28;20048;-69
2022/06/14 02:13:28;;;;;;;1.50;0.80;;;10.10;99.90;;;;;;5058037;28;20064;-69
2022/06/14 02:16:08;;;;;;;1.83;0.90;;;10.20;99.90;;;;;;5055001;28;20111;-69
2022/06/14 02:18:58;;;;;;;2.38;0.75;;;10.20;99.90;;;;;;5055119;28;20039;-69
2022/06/14 02:21:44;;;;;;;3.42;0.80;;;10.20;99.90;;;;;;5071375;28;20037;-69
2022/06/14 02:24:22;;;;;;;2.38;0.70;;;10.10;99.90;;;;;;5071341;28;20102;-69
2022/06/14 02:27:02;;;;;;;1.30;0.70;;;10.10;99.90;;;;;;5075359;28;20051;-70
2022/06/14 02:29:38;;;;;;;0.88;0.60;;;10.00;99.90;;;;;;5063235;28;20115;-70
2022/06/14 02:32:26;;;;;;;1.52;0.70;;;10.10;99.90;;;;;;5071895;28;20048;-69
2022/06/14 02:35:18;;;;;;;1.92;0.68;;;10.00;99.90;;;;;;5058861;28;20131;-70
2022/06/14 02:38:15;;;;;;;1.38;0.52;;;10.00;99.90;;;;;;5070745;28;20029;-69
2022/06/14 02:40:48;;;;;;;1.58;0.63;;;10.00;99.90;;;;;;5071741;28;20047;-70
2022/06/14 02:43:42;;;;;;;2.25;0.70;;;9.90;99.90;;;;;;5062989;28;20071;-69
2022/06/14 02:46:13;;;;;;;1.35;0.60;;;9.90;99.90;;;;;;5067618;28;20499;-70
2022/06/14 02:48:47;;;;;;;1.80;0.70;;;9.90;99.90;;;;;;5054141;28;20087;-69
2022/06/14 02:51:37;;;;;;;2.25;0.75;;;9.80;99.90;;;;;;5071348;28;20040;-69
2022/06/14 02:54:15;;;;;;;1.48;0.70;;;9.80;99.90;;;;;;5072298;28;20512;-70
2022/06/14 02:56:52;;;;;;;2.42;0.90;;;9.70;99.90;;;;;;5070556;28;20033;-70
2022/06/14 02:59:47;;;;;;;1.98;0.90;;;9.80;99.90;;;;;;5060355;28;20040;-70
2022/06/14 03:02:23;;;;;;;1.88;0.85;;;9.70;99.90;;;;;;5073147;28;20457;-70
2022/06/14 03:04:58;;;;;;;3.25;0.82;;;9.70;99.90;;;;;;5069281;28;20502;-70
2022/06/14 03:07:31;;;;;;;2.00;0.70;;;9.70;99.90;;;;;;5057805;28;20068;-69
2022/06/14 03:09:58;;;;;;;1.58;0.70;;;9.70;99.90;;;;;;5070327;28;20040;-70
2022/06/14 03:12:45;;;;;;;1.83;0.70;;;9.70;99.90;;;;;;5086672;28;20483;-70
2022/06/14 03:15:40;;;;;;;0.70;0.50;;;9.70;99.90;;;;;;5068814;28;20055;-69
2022/06/14 03:18:22;;;;;;;1.15;0.50;;;9.70;99.90;;;;;;5011082;28;20038;-70
2022/06/14 03:21:23;;;;;;;2.00;0.75;;;9.70;99.90;;;;;;5074630;28;20444;-70
2022/06/14 03:23:58;;;;;;;1.65;0.90;;;9.70;99.90;;;;;;5033058;28;20056;-70
2022/06/14 03:26:33;;;;;;;2.20;0.80;;;9.70;99.90;;;;;;5070383;28;20052;-70
2022/06/14 03:29:13;;;;;;;1.67;0.85;;;9.70;99.90;;;;;;5053836;28;20127;-70
2022/06/14 03:31:53;;;;;;;3.47;1.00;;;9.70;99.90;;;;;;5074128;28;20151;-70
2022/06/14 03:34:41;;;;;;;3.47;0.82;;;9.70;99.90;;;;;;5081764;28;20051;-69
2022/06/14 03:37:08;;;;;;;2.55;0.75;;;9.70;99.90;;;;;;5047111;28;20114;-69
2022/06/14 03:39:46;;;;;;;1.85;0.80;;;9.70;99.90;;;;;;5069489;28;20036;-69
2022/06/14 03:42:13;;;;;;;1.17;0.60;;;9.70;99.90;;;;;;5068699;28;20048;-69
2022/06/14 03:44:40;;;;;;;1.38;0.70;;;9.70;99.90;;;;;;5068892;28;20040;-69
2022/06/14 03:47:20;;;;;;;1.52;0.60;;;9.70;99.90;;;;;;5071306;28;20102;-70
2022/06/14 03:50:09;;;;;;;1.40;0.70;;;9.70;99.90;;;;;;5068346;28;20044;-70
2022/06/14 03:52:57;;;;;;;1.13;0.57;;;9.70;99.90;;;;;;5039459;28;20529;-69
2022/06/14 03:55:42;;;;;;;1.48;0.70;;;9.70;99.90;;;;;;5085499;28;20415;-69
2022/06/14 03:58:31;;;;;;;0.93;0.70;;;9.70;99.90;;;;;;5081813;28;20048;-70
2022/06/14 04:01:03;;;;;;;3.50;0.98;;;9.70;99.90;;;;;;5051626;28;20479;-70
2022/06/14 04:04:04;;;;;;;3.65;0.90;;;9.70;99.90;;;;;;5066210;28;20119;-70
2022/06/14 04:06:48;;;;;;;2.53;0.95;;;9.70;99.90;;;;;;5055861;28;20049;-69
2022/06/14 04:09:52;;;;;;;2.53;1.13;;;9.80;99.90;;;;;;5054012;28;20041;-69
2022/06/14 04:12:33;;;;;;;2.03;0.90;;;9.80;99.90;;;;;;5034533;28;20504;-70
2022/06/14 04:15:29;;;;;;;1.58;0.75;;;9.80;99.90;;;;;;5067414;28;20585;-70
2022/06/14 04:21:28;;;;;;;2.25;1.00;;;9.80;99.90;;;;;;5070499;28;20115;-70
2022/06/14 04:24:19;;;;;;;1.25;0.75;;;9.90;99.90;;;;;;5069252;28;20044;-70
2022/06/14 04:26:50;;;;;;;1.95;0.70;;;9.90;99.90;;;;;;5069626;28;20076;-70
2022/06/14 04:29:38;;;;;;;1.85;0.70;;;10.00;99.90;;;;;;5064313;28;20123;-69
2022/06/14 04:32:30;;;;;;;1.95;0.77;;;10.10;99.90;;;;;;5066941;28;20546;-69
2022/06/14 04:35:03;;;;;;;2.55;0.73;;;10.10;99.90;;;;;;5031723;28;20098;-69
2022/06/14 04:37:54;;;;;;;1.73;0.73;;;10.10;99.90;;;;;;5073068;28;20567;-69
2022/06/14 04:40:30;;;;;;;1.45;0.70;;;10.20;99.90;;;;;;5064824;28;20099;-70
2022/06/14 04:43:03;;;;;;;1.13;0.83;;;10.20;99.90;;;;;;5057957;28;20056;-70
2022/06/14 04:45:41;;;;;;;1.98;0.68;;;10.30;99.90;;;;;;5070254;28;20045;-70
2022/06/14 04:48:20;;;;;;;1.25;0.70;;;10.30;99.90;;;;;;5051443;28;20043;-69
2022/06/14 04:51:05;;;;;;;1.50;0.60;;;10.40;99.90;;;;;;5051786;28;20560;-70
2022/06/14 04:53:51;;;;;;;2.25;0.77;;;10.40;99.90;;;;;;5059150;28;20508;-78
2022/06/14 04:56:25;;;;;;;2.03;0.70;;;10.50;99.90;;;;;;5066313;28;21363;-77
2022/06/14 04:59:06;;;;;;;1.55;0.80;;;10.50;99.90;;;;;;5057006;28;20108;-77
2022/06/14 05:01:41;;;;;;;1.52;0.50;;;10.60;99.90;;;;;;5053917;28;20112;-78
2022/06/14 05:04:24;;;;;;;2.35;0.93;;;10.60;99.90;;;;;;5055698;28;20044;-78
2022/06/14 05:07:10;;;;;;;1.10;0.70;;;10.70;99.90;;;;;;5069083;28;20139;-78
2022/06/14 05:09:41;;;;;;;1.45;0.57;;;10.80;99.90;;;;;;5067476;28;20369;-77
2022/06/14 05:12:21;;;;;;;1.02;0.65;;;10.80;99.90;;;;;;5068434;28;20106;-77
2022/06/14 05:14:53;;;;;;;2.90;0.90;;;10.90;99.90;;;;;;5068813;28;20044;-79
2022/06/14 05:17:29;;;;;;;1.52;0.80;;;10.90;99.90;;;;;;5067479;28;20101;-77
2022/06/14 05:20:19;;;;;;;1.30;0.88;;;11.00;99.90;;;;;;5053564;28;20071;-78
2022/06/14 05:23:06;;;;;;;2.03;0.93;;;11.10;99.90;;;;;;5067997;28;20075;-77
2022/06/14 05:26:02;;;;;;;2.15;1.00;;;11.10;99.90;;;;;;5064258;28;20586;-77
2022/06/14 05:28:52;;;;;;;2.08;0.70;;;11.20;99.90;;;;;;5063186;28;20041;-77
2022/06/14 05:31:33;;;;;;;1.40;0.63;;;11.30;99.90;;;;;;5068953;28;20045;-77
2022/06/14 05:34:16;;;;;;;2.97;0.77;;;11.30;99.90;;;;;;5068039;28;20053;-77
2022/06/14 05:37:13;;;;;;;1.30;0.70;;;11.40;99.90;;;;;;5061537;28;20475;-77
2022/06/14 05:39:46;;;;;;;3.15;1.10;;;11.40;99.90;;;;;;5049920;28;20087;-77
2022/06/14 05:42:18;;;;;;;2.70;0.90;;;11.50;99.90;;;;;;5075692;28;20076;-77
2022/06/14 05:44:47;;;;;;;1.95;0.82;;;11.50;99.90;;;;;;5068731;28;20044;-77
2022/06/14 05:47:34;;;;;;;1.85;0.63;;;11.60;99.90;;;;;;5071701;28;20060;-77
2022/06/14 05:50:09;;;;;;;0.80;0.47;;;11.70;99.90;;;;;;5048566;28;20056;-77
2022/06/14 05:53:19;;;;;;;1.30;0.60;;;11.70;99.90;;;;;;5061851;28;21204;-77
2022/06/14 05:55:51;;;;;;;2.05;0.80;;;11.80;99.90;;;;;;5010728;28;20048;-77
2022/06/14 05:58:37;;;;;;;1.27;0.80;;;11.90;99.90;;;;;;5015099;28;20045;-77
2022/06/14 06:01:16;;;;;;;1.02;0.70;;;11.90;99.90;;;;;;5044562;28;20472;-68
2022/06/14 06:04:05;;;;;;;0.80;0.55;;;11.90;99.90;;;;;;5061968;28;20089;-70
2022/06/14 06:06:36;;;;;;;0.90;0.52;;;12.00;99.90;;;;;;5058191;28;20067;-71
2022/06/14 06:09:11;;;;;;;2.45;0.80;;;12.20;99.90;;;;;;5080585;28;20120;-71
2022/06/14 06:11:44;;;;;;;2.67;0.77;;;12.30;99.90;;;;;;5074178;28;20047;-71
2022/06/14 06:14:18;;;;;;;1.80;0.85;;;12.50;99.90;;;;;;5088513;28;20094;-71
2022/06/14 06:19:50;;;;;;;3.03;1.02;;;12.80;99.90;;;;;;5085860;28;20053;-71
2022/06/14 06:22:26;;;;;;;3.20;0.90;;;13.00;99.90;;;;;;5041387;28;20106;-70
2022/06/14 06:25:00;;;;;;;4.13;1.35;;;13.20;99.90;;;;;;5085622;28;20047;-71
2022/06/14 06:27:36;;;;;;;7.20;1.75;;;13.40;99.90;;;;;;5079467;28;20045;-70
2022/06/14 06:30:17;;;;;;;3.57;1.20;;;13.60;99.90;;;;;;5071499;28;20580;-71
2022/06/14 06:32:44;;;;;;;4.68;1.77;;;13.70;99.90;;;;;;5070057;28;20050;-70
2022/06/14 06:35:11;;;;;;;7.45;2.05;;;13.70;99.90;;;;;;5082835;28;20102;-70
2022/06/14 06:37:46;;;;;;;4.38;1.30;;;13.80;99.90;;;;;;5078465;28;20499;-70
2022/06/14 06:40:19;;;;;;;7.28;1.92;;;14.00;99.90;;;;;;5091355;28;20040;-71
2022/06/14 06:43:06;;;;;;;4.43;1.60;;;14.10;99.90;;;;;;5075982;28;20039;-71
2022/06/14 06:45:38;;;;;;;5.70;1.75;;;14.20;99.90;;;;;;5056632;28;20048;-71
2022/06/14 06:48:11;;;;;;;4.13;1.40;;;14.40;99.90;;;;;;5072524;28;20040;-70
2022/06/14 06:50:47;;;;;;;3.85;1.50;;;14.40;99.90;;;;;;5072180;28;20071;-71
2022/06/14 06:53:21;;;;;;;6.20;1.45;;;14.60;99.90;;;;;;5072625;28;20045;-71
2022/06/14 06:55:53;;;;;;;6.10;1.58;;;14.60;99.90;;;;;;5091538;28;20050;-70
2022/06/14 06:58:48;;;;;;;3.40;1.02;;;14.50;99.90;;;;;;5088065;28;20049;-70
2022/06/14 07:01:31;;;;;;;7.78;2.03;;;14.70;99.90;;;;;;5053628;28;20130;-71
2022/06/14 07:04:15;;;;;;;5.38;1.55;;;14.70;99.90;;;;;;5055151;28;20044;-71
2022/06/14 07:06:57;;;;;;;4.43;1.35;;;14.80;99.90;;;;;;5072314;28;20399;-70
2022/06/14 07:09:41;;;;;;;4.88;1.38;;;14.90;99.90;;;;;;5055190;28;20128;-71
2022/06/14 07:12:15;;;;;;;5.82;1.60;;;15.00;99.90;;;;;;5066440;28;20043;-71
2022/06/14 07:15:04;;;;;;;4.78;1.50;;;15.10;99.90;;;;;;5064878;28;20060;-70
2022/06/14 07:17:53;;;;;;;4.93;1.48;;;15.10;99.90;;;;;;5060109;28;20044;-71
2022/06/14 07:20:44;;;;;;;5.20;1.42;;;15.30;99.90;;;;;;5063859;28;20159;-71
2022/06/14 07:23:24;;;;;;;5.20;1.52;;;15.20;99.90;;;;;;5071605;28;20040;-71
2022/06/14 07:25:59;;;;;;;5.55;1.33;;;15.20;99.90;;;;;;5041940;28;20487;-71
2022/06/14 07:28:41;;;;;;;3.80;1.10;;;15.20;99.90;;;;;;5054755;28;20131;-71
2022/06/14 07:31:12;;;;;;;3.67;0.98;;;15.40;99.90;;;;;;5071910;28;20060;-71
2022/06/14 07:33:38;;;;;;;6.38;1.45;;;15.40;99.90;;;;;;5054695;28;20056;-71
2022/06/14 07:36:44;;;;;;;4.22;1.45;;;15.50;99.90;;;;;;5088402;28;20040;-71
2022/06/14 07:39:23;;;;;;;2.85;1.25;;;15.40;99.90;;;;;;5070586;28;20403;-71
2022/06/14 07:42:10;;;;;;;5.53;1.75;;;15.60;99.90;;;;;;5071365;28;20593;-70
2022/06/14 07:44:48;;;;;;;2.30;0.80;;;15.70;99.90;;;;;;5058904;28;20119;-70
2022/06/14 07:47:23;;;;;;;3.17;1.10;;;15.80;99.90;;;;;;5071121;28;20052;-71
2022/06/14 07:50:04;;;;;;;3.22;1.00;;;16.00;99.90;;;;;;5054652;28;20072;-71
2022/06/14 07:52:42;;;;;;;3.65;1.20;;;16.20;99.90;;;;;;5054008;28;20059;-70
2022/06/14 07:55:34;;;;;;;4.10;1.10;;;16.20;99.90;;;;;;5070897;28;20555;-71
2022/06/14 07:58:09;;;;;;;6.35;1.33;;;16.30;99.90;;;;;;5089437;28;20535;-71
2022/06/14 08:03:49;;;;;;;2.53;1.00;;;16.80;99.90;;;;;;5071077;28;20043;-70
2022/06/14 08:06:21;;;;;;;2.20;0.98;;;16.90;99.90;;;;;;5070942;28;20044;-70
2022/06/14 08:08:53;;;;;;;1.90;0.95;;;17.00;99.90;;;;;;5057118;28;20032;-70
2022/06/14 08:11:26;;;;;;;5.57;1.40;;;17.40;99.90;;;;;;5057416;28;20103;-70
2022/06/14 08:14:02;;;;;;;3.70;1.15;;;17.00;99.90;;;;;;5055824;28;20045;-70
2022/06/14 08:16:28;;;;;;;2.88;0.98;;;17.10;99.90;;;;;;5064277;28;20048;-70
2022/06/14 08:19:03;;;;;;;4.10;1.38;;;17.30;99.90;;;;;;5073025;28;20037;-70
2022/06/14 08:21:40;;;;;;;2.50;0.88;;;17.20;99.90;;;;;;5087464;28;20534;-71
2022/06/14 08:24:18;;;;;;;2.25;1.00;;;17.70;99.90;;;;;;5087481;28;20071;-70
2022/06/14 08:27:22;;;;;;;4.15;1.05;;;17.50;99.90;;;;;;5070054;28;20061;-71
2022/06/14 08:29:57;;;;;;;2.92;1.27;;;17.60;99.90;;;;;;5067198;28;20061;-70
2022/06/14 08:33:19;;;;;;;2.40;0.83;;;17.70;99.90;;;;;;5070211;28;20045;-71
2022/06/14 08:35:57;;;;;;;1.98;0.70;;;17.90;99.10;;;;;;5012273;28;20075;-70
2022/06/14 08:38:33;;;;;;;5.00;1.38;;;18.20;99.30;;;;;;5087015;28;20040;-71
2022/06/14 08:41:27;;;;;;;1.73;0.80;;;18.20;99.60;;;;;;5069994;28;20044;-70
2022/06/14 08:43:59;;;;;;;1.95;0.70;;;18.70;99.90;;;;;;5086782;28;20032;-70
2022/06/14 08:47:03;;;;;;;3.25;1.10;;;19.30;99.00;;;;;;5087278;28;20432;-70
2022/06/14 08:50:13;;;;;;;2.78;0.80;;;18.80;98.70;;;;;;5034579;28;20044;-71
2022/06/14 08:52:48;;;;;;;2.10;0.80;;;18.30;97.30;;;;;;5070032;28;20338;-71
2022/06/14 08:55:52;;;;;;;1.90;0.88;;;18.20;98.60;;;;;;5069824;28;20050;-71
2022/06/14 08:58:48;;;;;;;2.72;0.85;;;17.90;99.90;;;;;;5049029;28;20488;-71
2022/06/14 09:01:42;;;;;;;3.47;1.10;;;17.90;99.90;;;;;;5047300;28;20044;-70
2022/06/14 09:04:38;;;;;;;1.63;0.73;;;18.40;99.90;;;;;;5069224;28;20106;-70
2022/06/14 09:07:22;;;;;;;1.50;0.70;;;18.70;99.90;;;;;;5069531;28;20043;-70
2022/06/14 09:10:08;;;;;;;1.52;0.80;;;19.40;99.80;;;;;;5064635;28;20047;-71
2022/06/14 09:12:46;;;;;;;2.53;0.70;;;19.50;97.60;;;;;;5069485;28;20056;-70
2022/06/14 09:15:16;;;;;;;1.75;0.73;;;19.90;97.00;;;;;;5071899;28;20053;-71
2022/06/14 09:17:59;;;;;;;2.05;0.80;;;19.90;95.90;;;;;;5069469;28;20045;-71
2022/06/14 09:21:03;;;;;;;2.25;0.80;;;20.20;95.70;;;;;;5069414;28;20032;-71
2022/06/14 09:24:05;;;;;;;2.15;0.80;;;20.10;95.10;;;;;;5069049;28;20118;-71
2022/06/14 09:26:38;;;;;;;3.65;0.95;;;20.20;96.10;;;;;;5069296;28;20492;-71
2022/06/14 09:29:16;;;;;;;2.00;0.60;;;19.90;95.90;;;;;;5069127;28;20075;-71
2022/06/14 09:32:09;;;;;;;1.67;0.70;;;19.60;96.40;;;;;;5069705;28;20040;-69
2022/06/14 09:34:44;;;;;;;1.20;0.65;;;19.80;96.30;;;;;;5069192;28;20043;-69
2022/06/14 09:37:44;;;;;;;2.78;0.90;;;19.90;96.70;;;;;;5052411;28;20123;-69
2022/06/14 09:40:19;;;;;;;1.45;0.70;;;19.50;96.20;;;;;;5068962;28;20480;-69
2022/06/14 09:43:17;;;;;;;2.28;0.70;;;19.80;96.40;;;;;;5049531;28;20408;-69
2022/06/14 09:46:01;;;;;;;3.03;0.80;;;20.00;94.90;;;;;;5063127;28;20040;-70
2022/06/14 09:48:38;;;;;;;1.95;0.82;;;19.50;95.60;;;;;;5049238;28;20045;-71
2022/06/14 09:51:34;;;;;;;0.93;0.47;;;19.10;95.70;;;;;;5067546;28;20138;-71
2022/06/14 09:54:21;;;;;;;3.72;0.93;;;18.80;97.00;;;;;;5084940;28;20447;-71
2022/06/14 09:57:02;;;;;;;2.22;1.00;;;18.10;98.60;;;;;;5042434;28;20025;-71
2022/06/14 09:59:45;;;;;;;1.58;0.65;;;18.00;99.70;;;;;;5072235;28;20049;-71
2022/06/14 10:02:29;;;;;;;2.67;0.70;;;18.00;99.90;;;;;;5057223;28;20137;-71
2022/06/14 10:05:13;;;;;;;1.55;0.60;;;18.00;99.90;;;;;;5069120;28;20437;-71
2022/06/14 10:08:01;;;;;;;1.30;0.60;;;18.00;99.70;;;;;;5069380;28;20049;-71
2022/06/14 10:10:42;;;;;;;1.90;0.55;;;18.00;99.90;;;;;;5072042;28;20048;-71
2022/06/14 10:13:45;;;;;;;1.67;0.65;;;18.10;99.30;;;;;;5069126;28;20087;-71
2022/06/14 10:16:30;;;;;;;3.33;0.90;;;18.10;99.90;;;;;;5056091;28;20052;-71
2022/06/14 10:18:59;;;;;;;2.20;0.80;;;18.10;99.60;;;;;;5072991;28;20059;-70
2022/06/14 10:21:36;;;;;;;0.95;0.52;;;18.30;99.90;;;;;;5060850;28;20127;-71
2022/06/14 10:24:15;;;;;;;1.15;0.50;;;18.50;99.90;;;;;;5058934;28;20098;-71
2022/06/14 10:30:15;;;;;;;2.08;0.60;;;18.60;99.40;;;;;;5064449;28;20460;-71
2022/06/14 10:33:00;;;;;;;1.40;0.70;;;18.50;99.90;;;;;;5073561;28;20049;-71
2022/06/14 10:35:41;;;;;;;1.88;0.75;;;18.40;99.90;;;;;;5072399;28;20036;-71
2022/06/14 10:38:31;;;;;;;2.97;1.05;;;18.10;99.90;;;;;;5089851;28;20480;-71
2022/06/14 10:41:08;;;;;;;1.58;0.70;;;18.00;99.90;;;;;;5072483;28;20116;-71
2022/06/14 10:44:03;;;;;;;3.30;1.00;;;17.80;99.90;;;;;;5089639;28;20048;-71
2022/06/14 10:46:43;;;;;;;4.97;1.00;;;17.50;99.90;;;;;;5072047;28;20132;-71
2022/06/14 10:49:12;;;;;;;2.80;1.02;;;17.30;99.90;;;;;;5086276;28;20457;-71
2022/06/14 10:52:09;;;;;;;3.50;1.25;;;17.00;99.90;;;;;;5061644;28;20403;-71
2022/06/14 10:54:59;;;;;;;2.63;0.90;;;16.90;99.90;;;;;;5089040;28;20052;-71
2022/06/14 10:57:42;;;;;;;3.08;0.88;;;16.80;99.90;;;;;;5072089;28;20049;-70
2022/06/14 11:00:13;;;;;;;4.05;1.17;;;16.70;99.90;;;;;;5055445;28;20041;-71
2022/06/14 11:02:51;;;;;;;3.22;1.10;;;16.50;99.90;;;;;;5072191;28;20051;-71
2022/06/14 11:05:37;;;;;;;4.32;1.50;;;16.50;99.90;;;;;;5088783;28;20044;-71
2022/06/14 11:08:50;;;;;;;2.10;0.90;;;16.40;99.90;;;;;;5089021;28;20046;-71
2022/06/14 11:11:42;;;;;;;2.35;0.93;;;16.50;99.90;;;;;;5014544;28;20041;-70
2022/06/14 11:14:29;;;;;;;1.92;0.80;;;16.50;99.90;;;;;;5057044;28;20048;-71
2022/06/14 11:17:04;;;;;;;3.22;0.90;;;16.50;99.90;;;;;;5041043;28;20124;-71
2022/06/14 11:19:42;;;;;;;1.90;0.65;;;16.60;99.90;;;;;;5071664;28;20040;-71
2022/06/14 11:22:39;;;;;;;3.92;1.20;;;16.70;99.90;;;;;;5088489;28;20119;-70
2022/06/14 11:25:21;;;;;;;2.88;1.05;;;16.80;99.90;;;;;;5046520;28;20056;-70
2022/06/14 11:28:04;;;;;;;1.10;0.68;;;17.00;99.90;;;;;;5088613;28;20127;-71
2022/06/14 11:30:49;;;;;;;2.00;0.90;;;17.20;99.90;;;;;;5068217;28;20041;-70
2022/06/14 11:33:39;;;;;;;2.63;0.95;;;17.40;99.90;;;;;;5063482;28;20053;-71
2022/06/14 11:36:43;;;;;;;2.20;0.90;;;17.50;99.90;;;;;;5058513;28;20542;-71
2022/06/14 11:39:21;;;;;;;3.38;0.98;;;17.80;99.90;;;;;;5071067;28;20040;-71
2022/06/14 11:41:49;;;;;;;1.90;0.80;;;17.80;99.90;;;;;;5071767;28;20040;-71
2022/06/14 11:44:36;;;;;;;3.47;1.10;;;18.20;99.90;;;;;;5066641;28;20080;-71
2022/06/14 11:47:05;;;;;;;1.40;0.80;;;18.30;99.90;;;;;;5051753;28;20056;-70
2022/06/14 11:49:45;;;;;;;1.80;0.75;;;18.40;99.90;;;;;;5051494;28;20036;-70
2022/06/14 11:53:05;;;;;;;1.58;0.80;;;18.50;99.90;;;;;;5069061;28;20048;-70
2022/06/14 11:56:02;;;;;;;4.70;1.50;;;18.50;99.90;;;;;;4997497;28;20042;-69
2022/06/14 11:58:54;;;;;;;3.00;0.95;;;18.30;99.90;;;;;;5067446;28;20041;-69
2022/06/14 12:01:33;;;;;;;2.35;0.90;;;18.40;99.90;;;;;;5040698;28;20515;-68
2022/06/14 12:04:14;;;;;;;3.10;0.90;;;18.70;99.90;;;;;;5071101;28;20052;-69
2022/06/14 12:06:56;;;;;;;1.63;0.73;;;18.90;99.90;;;;;;5070079;28;20036;-69
2022/06/14 12:09:34;;;;;;;1.25;0.70;;;19.40;99.90;;;;;;5068305;28;20075;-69
2022/06/14 12:12:29;;;;;;;0.77;0.55;;;20.10;99.90;;;;;;5061948;28;20506;-69
2022/06/14 12:15:10;;;;;;;2.35;0.70;;;20.30;97.30;;;;;;5059264;28;20400;-69
2022/06/14 12:17:42;;;;;;;1.77;0.75;;;20.20;96.90;;;;;;5069199;28;20123;-69
2022/06/14 12:20:12;;;;;;;2.33;0.73;;;20.10;97.90;;;;;;5048865;28;20070;-69
2022/06/14 12:22:42;;;;;;;1.58;0.70;;;19.90;97.10;;;;;;5062467;28;20048;-69
2022/06/14 12:28:20;;;;;;;2.35;0.80;;;19.50;97.70;;;;;;5065049;28;20048;-69
2022/06/14 12:30:48;;;;;;;3.78;1.23;;;19.20;97.60;;;;;;5064194;28;20805;-69
2022/06/14 12:33:22;;;;;;;3.63;0.98;;;18.90;97.30;;;;;;5064763;28;20036;-69
2022/06/14 12:36:15;;;;;;;1.17;0.63;;;18.90;98.50;;;;;;5040534;28;20048;-69
2022/06/14 12:38:44;;;;;;;3.00;1.10;;;18.90;98.60;;;;;;5064577;28;20119;-69
2022/06/14 12:41:19;;;;;;;1.80;0.77;;;18.70;98.90;;;;;;5070239;28;20394;-69
2022/06/14 12:43:50;;;;;;;1.58;0.90;;;18.70;99.60;;;;;;5064166;28;20037;-69
2022/06/14 12:46:23;;;;;;;1.67;0.57;;;18.90;99.70;;;;;;5052469;28;20109;-69
2022/06/14 12:48:59;;;;;;;2.55;0.90;;;18.90;98.90;;;;;;5072594;28;20487;-69
2022/06/14 12:51:35;;;;;;;1.73;0.88;;;18.90;98.70;;;;;;5083466;28;20062;-69
2022/06/14 12:54:19;;;;;;;3.13;1.10;;;19.00;98.30;;;;;;5066967;28;20044;-69
2022/06/14 12:57:26;;;;;;;1.95;0.82;;;18.90;96.90;;;;;;5048198;28;20159;-69
2022/06/14 13:00:27;;;;;;;1.73;0.70;;;19.10;99.10;;;;;;5066425;28;20132;-69
2022/06/14 13:03:12;;;;;;;2.15;0.80;;;19.50;98.30;;;;;;5060086;28;20052;-69
2022/06/14 13:05:50;;;;;;;1.35;0.50;;;19.80;96.80;;;;;;5068752;28;20055;-69
2022/06/14 13:08:25;;;;;;;1.35;0.60;;;20.00;97.60;;;;;;5064528;28;20135;-69
2022/06/14 13:10:53;;;;;;;2.38;0.70;;;20.10;95.50;;;;;;5038271;28;20174;-69
2022/06/14 13:13:45;;;;;;;1.23;0.50;;;20.20;95.80;;;;;;5060624;28;20093;-69
2022/06/14 13:16:26;;;;;;;1.15;0.50;;;20.30;95.70;;;;;;5011963;28;20087;-70
2022/06/14 13:19:01;;;;;;;0.70;0.47;;;20.40;96.80;;;;;;5082553;28;20111;-70
2022/06/14 13:22:06;;;;;;;0.60;0.40;;;20.50;96.00;;;;;;5067411;28;20488;-70
2022/06/14 13:24:50;;;;;;;0.93;0.50;;;20.60;96.30;;;;;;5042044;28;20049;-70
2022/06/14 13:27:29;;;;;;;2.58;0.70;;;20.50;95.80;;;;;;5047814;28;20148;-70
2022/06/14 13:30:09;;;;;;;1.20;0.50;;;20.50;95.70;;;;;;5066306;28;20044;-70
2022/06/14 13:32:47;;;;;;;1.55;0.52;;;20.40;96.30;;;;;;5084724;28;20035;-70
2022/06/14 13:35:19;;;;;;;2.47;0.90;;;20.40;96.00;;;;;;5077529;28;20036;-73
2022/06/14 13:37:56;;;;;;;2.95;1.00;;;20.00;95.90;;;;;;5068400;28;20032;-73
2022/06/14 13:40:37;;;;;;;2.35;1.00;;;19.80;98.90;;;;;;5082132;28;20047;-73
2022/06/14 13:43:29;;;;;;;3.42;1.30;;;19.20;99.90;;;;;;5057675;28;20036;-70
2022/06/14 13:46:00;;;;;;;2.65;1.00;;;19.00;99.90;;;;;;5063427;28;20098;-70
2022/06/14 13:48:38;;;;;;;2.10;0.90;;;18.80;99.90;;;;;;5049871;28;20199;-70
2022/06/14 13:51:37;;;;;;;2.10;0.85;;;18.60;99.90;;;;;;5048192;28;20090;-70
2022/06/14 13:54:28;;;;;;;3.45;0.95;;;18.50;99.90;;;;;;5068648;28;20583;-69
2022/06/14 13:57:13;;;;;;;1.63;0.73;;;18.40;99.90;;;;;;5046807;28;20044;-70
2022/06/14 13:59:43;;;;;;;1.63;0.82;;;18.60;99.90;;;;;;5083382;28;20487;-71
2022/06/14 14:02:23;;;;;;;2.58;0.90;;;18.80;99.90;;;;;;5057474;28;20048;-71
2022/06/14 14:05:23;;;;;;;1.92;1.00;;;18.90;99.90;;;;;;5061039;28;20044;-71
2022/06/14 14:08:15;;;;;;;2.35;1.00;;;19.00;99.90;;;;;;5065720;28;20454;-71
2022/06/14 14:10:59;;;;;;;3.25;1.30;;;19.00;99.90;;;;;;5047264;28;20059;-71
2022/06/14 14:13:36;;;;;;;1.88;0.80;;;19.10;99.90;;;;;;5064800;28;20048;-71
2022/06/14 14:16:07;;;;;;;;;;;19.30;99.90;;;;;;5059887;28;20068;-71
2022/06/14 14:18:57;;;;;;;2.35;0.80;;;19.40;99.90;;;;;;5045916;28;19916;-71